Time;durP1;ratioP1;P1;durP2;ratioP2;P2;SDS_P1;SDS_P2;PMS_P1;PMS_P2;Temp;Humidity;BMP_temperature;BMP_pressure;BME280_temperature;BME280_humidity;BME280_pressure;Samples;Min_cycle;Max_cycle;Signal;HPM_P1;HPM_P2
2022/04/22 00:02:19;;;;;;;6.13;3.10;;;;;;;;;;6308726;22;20609;-62
2022/04/22 00:04:45;;;;;;;8.65;3.75;;;;;;;;;;6308783;22;20177;-63
2022/04/22 00:07:12;;;;;;;5.85;3.10;;;;;;;;;;6308554;22;20194;-63
2022/04/22 00:09:38;;;;;;;5.53;3.53;;;;;;;;;;6309013;22;20625;-63
2022/04/22 00:12:04;;;;;;;6.30;3.05;;;;;;;;;;6308337;22;20170;-63
2022/04/22 00:14:30;;;;;;;5.07;2.78;;;;;;;;;;6308446;22;20139;-63
2022/04/22 00:16:56;;;;;;;6.75;3.70;;;;;;;;;;6308303;22;20154;-62
2022/04/22 00:19:21;;;;;;;4.63;2.63;;;;;;;;;;6308753;22;20154;-63
2022/04/22 00:21:47;;;;;;;4.95;2.88;;;;;;;;;;6308276;22;20139;-63
2022/04/22 00:24:14;;;;;;;5.85;3.13;;;;;;;;;;6308282;22;20208;-62
2022/04/22 00:26:40;;;;;;;4.32;3.00;;;;;;;;;;6308199;22;20219;-61
2022/04/22 00:29:07;;;;;;;5.50;3.08;;;;;;;;;;6308242;22;20180;-62
2022/04/22 00:31:33;;;;;;;4.10;2.85;;;;;;;;;;6308546;22;20143;-62
2022/04/22 00:33:59;;;;;;;6.72;2.95;;;;;;;;;;6308553;22;20230;-62
2022/04/22 00:36:25;;;;;;;6.88;3.08;;;;;;;;;;6308258;22;20139;-62
2022/04/22 00:38:51;;;;;;;3.83;2.85;;;;;;;;;;6308387;22;20499;-61
2022/04/22 00:41:17;;;;;;;4.57;2.72;;;;;;;;;;6308076;22;20143;-62
2022/04/22 00:43:44;;;;;;;6.63;2.92;;;;;;;;;;6308525;22;20464;-62
2022/04/22 00:46:10;;;;;;;5.05;2.97;;;;;;;;;;6308487;22;20147;-62
2022/04/22 00:48:36;;;;;;;4.70;2.80;;;;;;;;;;6308461;22;20182;-61
2022/04/22 00:51:03;;;;;;;6.80;3.03;;;;;;;;;;6308288;22;20143;-61
2022/04/22 00:53:30;;;;;;;6.43;3.05;;;;;;;;;;6307969;22;20139;-62
2022/04/22 00:55:55;;;;;;;7.20;2.85;;;;;;;;;;6308044;22;20135;-62
2022/04/22 00:58:21;;;;;;;6.90;2.97;;;;;;;;;;6308019;22;20200;-62
2022/04/22 01:00:47;;;;;;;5.90;3.08;;;;;;;;;;6307832;22;20551;-63
2022/04/22 01:03:13;;;;;;;8.25;2.92;;;;;;;;;;6308025;22;20142;-63
2022/04/22 01:11:08;;;;;;;6.53;3.00;;;;;;;;;;6308014;22;20162;-63
2022/04/22 01:13:34;;;;;;;3.63;2.80;;;;;;;;;;6308111;22;20445;-62
2022/04/22 01:16:00;;;;;;;6.07;3.00;;;;;;;;;;6307974;22;20139;-62
2022/04/22 01:18:26;;;;;;;6.93;3.10;;;;;;;;;;6308253;22;20161;-62
2022/04/22 01:20:52;;;;;;;8.55;3.33;;;;;;;;;;6307738;22;20163;-63
2022/04/22 01:23:18;;;;;;;5.07;2.88;;;;;;;;;;6307881;22;20174;-63
2022/04/22 01:25:44;;;;;;;8.18;3.88;;;;;;;;;;6308079;22;20142;-63
2022/04/22 01:28:10;;;;;;;7.80;3.40;;;;;;;;;;6307799;22;20661;-63
2022/04/22 01:30:37;;;;;;;6.43;3.40;;;;;;;;;;6307854;22;20584;-62
2022/04/22 01:33:03;;;;;;;5.15;3.33;;;;;;;;;;6307804;22;20224;-62
2022/04/22 01:35:29;;;;;;;5.85;2.95;;;;;;;;;;6308477;22;20142;-62
2022/04/22 01:37:55;;;;;;;5.90;3.40;;;;;;;;;;6307892;22;20200;-63
2022/04/22 01:40:21;;;;;;;7.65;3.33;;;;;;;;;;6308489;22;20230;-63
2022/04/22 01:42:47;;;;;;;8.23;3.17;;;;;;;;;;6308040;22;20178;-62
2022/04/22 01:45:13;;;;;;;5.70;3.60;;;;;;;;;;6307873;22;20204;-62
2022/04/22 01:47:39;;;;;;;7.30;3.75;;;;;;;;;;6307794;22;20471;-62
2022/04/22 01:50:06;;;;;;;5.53;3.33;;;;;;;;;;6308691;22;20142;-62
2022/04/22 01:52:32;;;;;;;9.90;3.67;;;;;;;;;;6310113;22;20143;-63
2022/04/22 01:54:58;;;;;;;5.00;3.20;;;;;;;;;;6310082;22;20158;-62
2022/04/22 01:57:24;;;;;;;6.20;3.63;;;;;;;;;;6309659;22;20144;-62
2022/04/22 01:59:50;;;;;;;6.38;3.40;;;;;;;;;;6309760;22;20170;-63
2022/04/22 02:02:17;;;;;;;10.90;3.80;;;;;;;;;;6309652;22;20618;-63
2022/04/22 02:04:43;;;;;;;6.90;3.55;;;;;;;;;;6309541;22;20146;-63
2022/04/22 02:07:09;;;;;;;9.15;3.58;;;;;;;;;;6309467;22;20543;-63
2022/04/22 02:09:35;;;;;;;7.50;3.17;;;;;;;;;;6309666;22;20135;-63
2022/04/22 02:12:01;;;;;;;6.38;3.33;;;;;;;;;;6310376;22;20430;-62
2022/04/22 02:14:27;;;;;;;7.15;3.33;;;;;;;;;;6310233;22;20135;-62
2022/04/22 02:16:54;;;;;;;5.40;3.40;;;;;;;;;;6309526;22;20207;-62
2022/04/22 02:19:20;;;;;;;7.50;3.72;;;;;;;;;;6309567;22;20136;-63
2022/04/22 02:21:46;;;;;;;6.28;3.70;;;;;;;;;;6309260;22;20143;-63
2022/04/22 02:24:12;;;;;;;4.38;3.20;;;;;;;;;;6309449;22;20433;-63
2022/04/22 02:29:23;;;;;;;5.72;3.55;;;;;;;;;;6309227;22;20245;-62
2022/04/22 02:31:52;;;;;;;9.40;4.05;;;;;;;;;;6309258;22;20173;-62
2022/04/22 02:34:18;;;;;;;5.25;3.05;;;;;;;;;;6310126;22;20146;-62
2022/04/22 02:36:44;;;;;;;7.65;3.50;;;;;;;;;;6310555;22;20139;-62
2022/04/22 02:39:10;;;;;;;7.68;3.70;;;;;;;;;;6309192;22;20555;-62
2022/04/22 02:47:05;;;;;;;7.75;3.60;;;;;;;;;;6309731;22;20177;-63
2022/04/22 02:49:31;;;;;;;7.93;3.55;;;;;;;;;;6309542;22;20238;-62
2022/04/22 02:51:57;;;;;;;7.18;4.07;;;;;;;;;;6309384;22;20166;-62
2022/04/22 02:54:23;;;;;;;8.30;3.58;;;;;;;;;;6309406;22;20227;-62
2022/04/22 02:56:50;;;;;;;6.28;3.17;;;;;;;;;;6309902;22;20139;-62
2022/04/22 02:59:16;;;;;;;7.68;3.83;;;;;;;;;;6309642;22;20634;-63
2022/04/22 03:01:43;;;;;;;6.90;3.60;;;;;;;;;;6309083;22;20135;-62
2022/04/22 03:04:09;;;;;;;8.90;3.72;;;;;;;;;;6309771;22;20139;-62
2022/04/22 03:06:35;;;;;;;4.55;3.47;;;;;;;;;;6309445;22;20142;-63
2022/04/22 03:09:01;;;;;;;8.65;4.22;;;;;;;;;;6309546;22;20166;-63
2022/04/22 03:11:28;;;;;;;10.90;3.65;;;;;;;;;;6309338;22;20616;-62
2022/04/22 03:13:54;;;;;;;6.45;3.78;;;;;;;;;;6309965;22;20135;-62
2022/04/22 03:16:23;;;;;;;6.38;3.75;;;;;;;;;;6309820;22;20143;-62
2022/04/22 03:18:49;;;;;;;6.43;3.80;;;;;;;;;;6308939;22;20139;-62
2022/04/22 03:21:15;;;;;;;8.68;4.00;;;;;;;;;;6309111;22;20444;-62
2022/04/22 03:23:41;;;;;;;8.02;4.13;;;;;;;;;;6309170;22;20445;-63
2022/04/22 03:26:07;;;;;;;7.50;4.25;;;;;;;;;;6308903;22;20495;-62
2022/04/22 03:28:33;;;;;;;9.50;4.18;;;;;;;;;;6308721;22;20171;-62
2022/04/22 03:30:59;;;;;;;6.85;3.63;;;;;;;;;;6308743;22;20191;-62
2022/04/22 03:33:25;;;;;;;9.07;4.07;;;;;;;;;;6309068;22;20557;-62
2022/04/22 03:35:51;;;;;;;8.38;4.40;;;;;;;;;;6309053;22;20154;-62
2022/04/22 03:38:20;;;;;;;7.22;4.15;;;;;;;;;;6308936;22;20142;-62
2022/04/22 03:40:47;;;;;;;10.70;4.28;;;;;;;;;;6308746;22;20139;-62
2022/04/22 03:43:13;;;;;;;7.72;4.45;;;;;;;;;;6308939;22;20170;-62
2022/04/22 03:45:39;;;;;;;6.72;4.00;;;;;;;;;;6308857;22;20147;-62
2022/04/22 03:48:06;;;;;;;9.23;4.28;;;;;;;;;;6308511;22;20399;-62
2022/04/22 03:50:32;;;;;;;8.68;4.53;;;;;;;;;;6309007;22;20146;-62
2022/04/22 03:52:58;;;;;;;8.82;4.30;;;;;;;;;;6308511;22;20187;-62
2022/04/22 03:55:24;;;;;;;12.80;4.97;;;;;;;;;;6309073;22;20406;-62
2022/04/22 04:00:34;;;;;;;9.20;4.32;;;;;;;;;;6309076;22;20218;-61
2022/04/22 04:03:01;;;;;;;11.75;4.50;;;;;;;;;;6308543;22;20167;-63
2022/04/22 04:05:27;;;;;;;10.93;4.53;;;;;;;;;;6308870;22;20143;-62
2022/04/22 04:07:53;;;;;;;9.23;4.22;;;;;;;;;;6308287;22;20247;-63
2022/04/22 04:16:00;;;;;;;9.57;4.57;;;;;;;;;;6308492;22;20437;-62
2022/04/22 04:18:33;;;;;;;9.93;5.00;;;;;;;;;;6308566;22;20127;-63
2022/04/22 04:23:44;;;;;;;11.55;4.97;;;;;;;;;;6308372;22;20141;-63
2022/04/22 04:26:11;;;;;;;10.93;4.57;;;;;;;;;;6308234;22;20143;-62
2022/04/22 04:28:38;;;;;;;10.05;4.90;;;;;;;;;;6308415;22;20173;-63
2022/04/22 04:31:04;;;;;;;11.95;4.60;;;;;;;;;;6308258;22;20154;-62
2022/04/22 04:33:31;;;;;;;7.32;4.47;;;;;;;;;;6308109;22;20134;-62
2022/04/22 04:35:58;;;;;;;9.15;4.90;;;;;;;;;;6308236;22;20139;-62
2022/04/22 04:38:24;;;;;;;8.13;4.30;;;;;;;;;;6308695;22;20154;-62
2022/04/22 04:40:51;;;;;;;8.10;4.45;;;;;;;;;;6308395;22;20145;-62
2022/04/22 04:43:18;;;;;;;9.07;4.35;;;;;;;;;;6308587;22;20252;-63
2022/04/22 04:45:44;;;;;;;10.73;4.75;;;;;;;;;;6308555;22;20143;-63
2022/04/22 04:48:10;;;;;;;12.90;4.75;;;;;;;;;;6308172;22;20170;-63
2022/04/22 04:50:36;;;;;;;8.63;4.40;;;;;;;;;;6308651;22;20143;-62
2022/04/22 04:53:02;;;;;;;9.07;4.57;;;;;;;;;;6308301;22;20139;-62
2022/04/22 04:55:28;;;;;;;9.95;5.18;;;;;;;;;;6308388;22;20555;-63
2022/04/22 04:57:53;;;;;;;11.02;4.90;;;;;;;;;;6308455;22;20229;-63
2022/04/22 05:00:20;;;;;;;13.57;5.07;;;;;;;;;;6307970;22;20208;-62
2022/04/22 05:02:46;;;;;;;11.25;5.10;;;;;;;;;;6308439;22;20446;-63
2022/04/22 05:05:12;;;;;;;11.15;4.85;;;;;;;;;;6307850;22;20451;-63
2022/04/22 05:07:48;;;;;;;9.63;4.80;;;;;;;;;;6307798;22;20159;-62
2022/04/22 05:10:14;;;;;;;12.35;5.68;;;;;;;;;;6307856;22;20166;-62
2022/04/22 05:12:41;;;;;;;12.02;5.30;;;;;;;;;;6307868;22;20448;-62
2022/04/22 05:15:08;;;;;;;9.70;5.10;;;;;;;;;;6308337;22;20135;-62
2022/04/22 05:17:34;;;;;;;12.40;4.95;;;;;;;;;;6308350;22;20204;-63
2022/04/22 05:20:00;;;;;;;9.70;4.82;;;;;;;;;;6307706;22;20564;-63
2022/04/22 05:22:26;;;;;;;9.95;4.45;;;;;;;;;;6307762;22;20142;-62
2022/04/22 05:24:52;;;;;;;9.70;4.68;;;;;;;;;;6309337;22;20456;-62
2022/04/22 05:27:18;;;;;;;11.73;4.63;;;;;;;;;;6309647;22;20177;-63
2022/04/22 05:32:37;;;;;;;12.18;4.18;;;;;;;;;;6309998;22;20290;-63
2022/04/22 05:35:06;;;;;;;7.32;3.60;;;;;;;;;;6310090;22;20271;-62
2022/04/22 05:37:42;;;;;;;7.05;4.55;;;;;;;;;;6309949;22;20143;-63
2022/04/22 05:40:09;;;;;;;11.95;4.25;;;;;;;;;;6310023;22;20508;-62
2022/04/22 05:42:38;;;;;;;11.75;4.25;;;;;;;;;;6310087;22;20449;-62
2022/04/22 05:45:04;;;;;;;8.43;3.75;;;;;;;;;;6310089;22;20139;-62
2022/04/22 05:47:30;;;;;;;9.13;3.78;;;;;;;;;;6309721;22;20198;-62
2022/04/22 05:49:56;;;;;;;6.20;3.25;;;;;;;;;;6310051;22;20136;-62
2022/04/22 05:52:22;;;;;;;7.43;4.00;;;;;;;;;;6309689;22;20139;-63
2022/04/22 05:54:48;;;;;;;8.63;4.13;;;;;;;;;;6309620;22;20434;-62
2022/04/22 05:57:14;;;;;;;9.88;3.58;;;;;;;;;;6309672;22;20200;-63
2022/04/22 05:59:41;;;;;;;14.48;3.85;;;;;;;;;;6310062;22;20139;-63
2022/04/22 06:02:07;;;;;;;9.50;3.88;;;;;;;;;;6309932;22;20170;-62
2022/04/22 06:04:33;;;;;;;6.90;3.55;;;;;;;;;;6310061;22;20139;-62
2022/04/22 06:06:59;;;;;;;11.50;4.65;;;;;;;;;;6309608;22;20443;-62
2022/04/22 06:12:10;;;;;;;17.63;4.60;;;;;;;;;;6309678;22;20449;-63
2022/04/22 06:14:36;;;;;;;9.70;3.63;;;;;;;;;;6309916;22;20143;-63
2022/04/22 06:17:02;;;;;;;13.85;4.72;;;;;;;;;;6309834;22;20200;-63
2022/04/22 06:19:28;;;;;;;9.35;4.05;;;;;;;;;;6309470;22;20590;-63
2022/04/22 06:21:54;;;;;;;7.70;3.53;;;;;;;;;;6309420;22;20143;-63
2022/04/22 06:24:20;;;;;;;9.25;3.88;;;;;;;;;;6309431;22;20139;-62
2022/04/22 06:26:46;;;;;;;7.72;3.90;;;;;;;;;;6309346;22;20134;-63
2022/04/22 06:29:12;;;;;;;10.63;3.95;;;;;;;;;;6309488;22;20232;-62
2022/04/22 06:31:42;;;;;;;7.68;3.90;;;;;;;;;;6309325;22;20147;-63
2022/04/22 06:34:08;;;;;;;10.02;4.32;;;;;;;;;;6309096;22;20194;-63
2022/04/22 06:36:34;;;;;;;9.63;4.13;;;;;;;;;;6308874;22;20181;-63
2022/04/22 06:39:01;;;;;;;10.18;4.40;;;;;;;;;;6309603;22;20147;-63
2022/04/22 06:45:46;;;;;;;10.57;3.85;;;;;;;;;;6309094;22;20142;-63
2022/04/22 06:47:13;;;;;;;6.43;4.05;;;;;;;;;;6308843;22;20169;-63
2022/04/22 06:49:41;;;;;;;9.45;4.38;;;;;;;;;;6309346;22;20170;-63
2022/04/22 06:52:07;;;;;;;8.20;4.22;;;;;;;;;;6309363;22;20154;-63
2022/04/22 06:54:33;;;;;;;14.23;4.00;;;;;;;;;;6309025;22;20223;-63
2022/04/22 06:57:00;;;;;;;11.15;4.65;;;;;;;;;;6309594;22;20139;-63
2022/04/22 06:59:26;;;;;;;8.68;3.88;;;;;;;;;;6309730;22;20143;-63
2022/04/22 07:01:52;;;;;;;8.00;3.90;;;;;;;;;;6309372;22;20146;-62
2022/04/22 07:04:18;;;;;;;7.60;4.10;;;;;;;;;;6309270;22;20139;-63
2022/04/22 07:06:45;;;;;;;9.55;4.68;;;;;;;;;;6309154;22;20135;-63
2022/04/22 07:09:11;;;;;;;9.98;4.68;;;;;;;;;;6309276;22;20166;-63
2022/04/22 07:11:38;;;;;;;8.93;4.63;;;;;;;;;;6308905;22;20457;-62
2022/04/22 07:14:04;;;;;;;11.35;5.30;;;;;;;;;;6309371;22;20503;-63
2022/04/22 07:16:30;;;;;;;10.98;4.65;;;;;;;;;;6309196;22;20557;-63
2022/04/22 07:18:57;;;;;;;9.40;4.60;;;;;;;;;;6309402;22;20142;-62
2022/04/22 07:21:23;;;;;;;13.88;5.38;;;;;;;;;;6309172;22;20436;-63
2022/04/22 07:23:49;;;;;;;11.38;4.88;;;;;;;;;;6309043;22;20157;-63
2022/04/22 07:26:16;;;;;;;10.10;4.80;;;;;;;;;;6308923;22;20269;-63
2022/04/22 07:28:46;;;;;;;11.25;5.03;;;;;;;;;;6308990;22;20459;-63
2022/04/22 07:31:12;;;;;;;9.10;4.75;;;;;;;;;;6309095;22;20561;-63
2022/04/22 07:33:38;;;;;;;7.82;4.97;;;;;;;;;;6308749;22;20135;-63
2022/04/22 07:36:04;;;;;;;7.72;4.88;;;;;;;;;;6308677;22;20484;-63
2022/04/22 07:38:30;;;;;;;7.82;4.25;;;;;;;;;;6309370;22;20158;-62
2022/04/22 07:40:56;;;;;;;7.43;4.40;;;;;;;;;;6308894;22;20138;-62
2022/04/22 07:48:56;;;;;;;7.15;3.90;;;;;;;;;;6308555;22;20603;-63
2022/04/22 07:51:30;;;;;;;9.73;3.97;;;;;;;;;;6308590;22;20547;-63
2022/04/22 07:53:56;;;;;;;6.40;3.28;;;;;;;;;;6309071;22;20169;-64
2022/04/22 07:56:23;;;;;;;12.07;3.53;;;;;;;;;;6308641;22;20139;-63
2022/04/22 07:58:49;;;;;;;9.18;3.58;;;;;;;;;;6309195;22;20157;-63
2022/04/22 08:01:14;;;;;;;7.68;3.63;;;;;;;;;;6309124;22;20652;-63
2022/04/22 08:03:41;;;;;;;7.97;4.15;;;;;;;;;;6309151;22;20577;-63
2022/04/22 08:06:07;;;;;;;6.47;4.22;;;;;;;;;;6308802;22;20273;-64
2022/04/22 08:08:33;;;;;;;9.18;3.95;;;;;;;;;;6308254;22;20205;-63
2022/04/22 08:10:59;;;;;;;6.97;3.88;;;;;;;;;;6308474;22;20158;-64
2022/04/22 08:13:26;;;;;;;9.27;3.38;;;;;;;;;;6308794;22;20531;-63
2022/04/22 08:15:52;;;;;;;12.07;3.70;;;;;;;;;;6308580;22;20169;-63
2022/04/22 08:18:18;;;;;;;9.85;3.60;;;;;;;;;;6308548;22;20139;-63
2022/04/22 08:20:44;;;;;;;5.47;3.78;;;;;;;;;;6308544;22;20146;-63
2022/04/22 08:23:11;;;;;;;11.68;4.40;;;;;;;;;;6308376;22;20581;-62
2022/04/22 08:25:37;;;;;;;8.27;4.00;;;;;;;;;;6308614;22;20139;-62
2022/04/22 08:28:03;;;;;;;9.02;4.53;;;;;;;;;;6309290;22;20523;-63
2022/04/22 08:30:29;;;;;;;7.53;4.10;;;;;;;;;;6308746;22;20261;-63
2022/04/22 08:32:55;;;;;;;7.95;4.10;;;;;;;;;;6308856;22;20200;-63
2022/04/22 08:35:21;;;;;;;9.00;4.00;;;;;;;;;;6309001;22;20147;-63
2022/04/22 08:37:47;;;;;;;8.02;3.75;;;;;;;;;;6308211;22;20538;-63
2022/04/22 08:40:13;;;;;;;4.10;3.50;;;;;;;;;;6308249;22;20143;-63
2022/04/22 08:42:40;;;;;;;5.75;3.63;;;;;;;;;;6308512;22;20150;-63
2022/04/22 08:45:07;;;;;;;8.40;3.63;;;;;;;;;;6308379;22;20596;-63
2022/04/22 08:50:19;;;;;;;8.95;3.63;;;;;;;;;;6308178;22;20141;-63
2022/04/22 08:52:50;;;;;;;10.40;3.65;;;;;;;;;;6308361;22;20169;-63
2022/04/22 08:55:17;;;;;;;8.30;3.80;;;;;;;;;;6308012;22;20450;-62
2022/04/22 08:57:43;;;;;;;5.68;3.40;;;;;;;;;;6308354;22;20154;-63
2022/04/22 09:00:09;;;;;;;8.70;3.42;;;;;;;;;;6307935;22;20142;-63
2022/04/22 09:02:36;;;;;;;6.25;3.60;;;;;;;;;;6308034;22;20495;-63
2022/04/22 09:05:02;;;;;;;7.88;4.00;;;;;;;;;;6308422;22;20247;-62
2022/04/22 09:07:28;;;;;;;6.80;3.88;;;;;;;;;;6307904;22;20222;-62
2022/04/22 09:09:54;;;;;;;10.13;4.30;;;;;;;;;;6308528;22;20147;-62
2022/04/22 09:12:21;;;;;;;6.97;3.95;;;;;;;;;;6308016;22;20194;-64
2022/04/22 09:14:49;;;;;;;7.63;3.70;;;;;;;;;;6308375;22;20145;-63
2022/04/22 09:17:16;;;;;;;5.47;3.40;;;;;;;;;;6307966;22;20408;-64
2022/04/22 09:19:45;;;;;;;10.90;3.83;;;;;;;;;;6307816;22;20157;-64
2022/04/22 09:22:11;;;;;;;7.85;3.67;;;;;;;;;;6308110;22;20155;-64
2022/04/22 09:24:48;;;;;;;9.15;4.13;;;;;;;;;;6307965;22;20193;-63
2022/04/22 09:27:14;;;;;;;6.20;3.38;;;;;;;;;;6308269;22;20204;-63
2022/04/22 09:29:41;;;;;;;7.70;3.42;;;;;;;;;;6307694;22;20150;-63
2022/04/22 09:32:09;;;;;;;9.50;3.70;;;;;;;;;;6307989;22;20143;-63
2022/04/22 09:34:37;;;;;;;8.20;4.13;;;;;;;;;;6308062;22;20146;-64
2022/04/22 09:42:50;;;;;;;8.63;3.78;;;;;;;;;;6307838;22;20142;-63
2022/04/22 09:45:16;;;;;;;6.78;3.47;;;;;;;;;;6308002;22;20275;-63
2022/04/22 09:47:42;;;;;;;5.95;3.55;;;;;;;;;;6307949;22;20181;-63
2022/04/22 09:50:12;;;;;;;7.82;3.78;;;;;;;;;;6307714;22;20162;-63
2022/04/22 09:52:46;;;;;;;7.05;3.58;;;;;;;;;;6308049;22;20142;-63
2022/04/22 09:55:16;;;;;;;9.05;3.60;;;;;;;;;;6307805;22;20204;-63
2022/04/22 09:57:53;;;;;;;7.97;3.72;;;;;;;;;;6308031;22;20202;-63
2022/04/22 10:00:21;;;;;;;11.85;4.50;;;;;;;;;;6308272;22;20156;-63
2022/04/22 10:02:51;;;;;;;8.57;4.70;;;;;;;;;;6307971;22;20325;-63
2022/04/22 10:05:19;;;;;;;5.85;4.25;;;;;;;;;;6307785;22;20146;-64
2022/04/22 10:07:44;;;;;;;7.38;4.47;;;;;;;;;;6307635;22;20562;-63
2022/04/22 10:10:12;;;;;;;7.93;4.38;;;;;;;;;;6308190;22;20145;-63
2022/04/22 10:12:39;;;;;;;6.30;4.40;;;;;;;;;;6309988;22;20146;-63
2022/04/22 10:15:09;;;;;;;7.38;4.38;;;;;;;;;;6309621;22;20150;-63
2022/04/22 10:17:37;;;;;;;5.57;3.90;;;;;;;;;;6309649;22;20147;-63
2022/04/22 10:20:03;;;;;;;6.40;3.88;;;;;;;;;;6309813;22;20207;-63
2022/04/22 10:22:31;;;;;;;7.50;4.30;;;;;;;;;;6309418;22;20154;-63
2022/04/22 10:24:58;;;;;;;6.35;4.00;;;;;;;;;;6309838;22;20227;-63
2022/04/22 10:27:24;;;;;;;5.70;3.80;;;;;;;;;;6309884;22;20208;-62
2022/04/22 10:29:50;;;;;;;6.25;4.00;;;;;;;;;;6309522;22;20157;-62
2022/04/22 10:32:17;;;;;;;6.72;3.92;;;;;;;;;;6309343;22;20162;-62
2022/04/22 10:34:44;;;;;;;5.68;3.50;;;;;;;;;;6309987;22;20465;-63
2022/04/22 10:37:18;;;;;;;6.28;4.00;;;;;;;;;;6309335;22;20135;-63
2022/04/22 10:39:48;;;;;;;5.38;3.88;;;;;;;;;;6309316;22;20575;-62
2022/04/22 10:42:15;;;;;;;6.45;4.10;;;;;;;;;;6309428;22;20142;-63
2022/04/22 10:47:39;;;;;;;6.68;3.95;;;;;;;;;;6309328;22;20261;-63
2022/04/22 10:50:24;;;;;;;8.68;3.83;;;;;;;;;;6309930;22;20138;-62
2022/04/22 10:53:06;;;;;;;5.22;3.80;;;;;;;;;;6310022;22;20245;-63
2022/04/22 10:55:33;;;;;;;5.13;3.63;;;;;;;;;;6309745;22;20149;-64
2022/04/22 10:58:14;;;;;;;7.22;3.58;;;;;;;;;;6310125;22;20146;-63
2022/04/22 11:00:42;;;;;;;5.68;3.15;;;;;;;;;;6309717;22;20145;-63
2022/04/22 11:03:21;;;;;;;6.47;3.40;;;;;;;;;;6310233;22;20143;-63
2022/04/22 11:05:48;;;;;;;7.20;3.85;;;;;;;;;;6309602;22;20557;-64
2022/04/22 11:08:18;;;;;;;6.88;3.50;;;;;;;;;;6310040;22;20192;-64
2022/04/22 11:10:44;;;;;;;4.05;2.90;;;;;;;;;;6309616;22;20138;-62
2022/04/22 11:13:26;;;;;;;3.65;2.55;;;;;;;;;;6308959;22;20530;-64
2022/04/22 11:15:52;;;;;;;3.13;2.60;;;;;;;;;;6309086;22;20194;-62
2022/04/22 11:18:19;;;;;;;3.92;2.58;;;;;;;;;;6309114;22;20554;-64
2022/04/22 11:20:52;;;;;;;2.97;2.50;;;;;;;;;;6309404;22;20185;-63
2022/04/22 11:23:18;;;;;;;4.75;2.63;;;;;;;;;;6308964;22;20195;-63
2022/04/22 11:25:44;;;;;;;5.07;2.13;;;;;;;;;;6308726;22;20484;-63
2022/04/22 11:28:10;;;;;;;5.35;2.55;;;;;;;;;;6308705;22;20624;-63
2022/04/22 11:30:37;;;;;;;4.30;2.50;;;;;;;;;;6308738;22;20150;-63
2022/04/22 11:33:13;;;;;;;7.35;2.60;;;;;;;;;;6308557;22;20149;-63
2022/04/22 11:35:39;;;;;;;3.28;2.10;;;;;;;;;;6309348;22;20205;-63
2022/04/22 11:38:06;;;;;;;3.55;2.47;;;;;;;;;;6308671;22;20532;-63
2022/04/22 11:40:37;;;;;;;3.42;2.22;;;;;;;;;;6309621;22;20146;-63
2022/04/22 11:43:14;;;;;;;4.70;2.38;;;;;;;;;;6309329;22;20211;-62
2022/04/22 11:45:41;;;;;;;3.42;1.90;;;;;;;;;;6309198;22;20205;-62
2022/04/22 11:48:11;;;;;;;3.97;2.28;;;;;;;;;;6308379;22;20162;-64
2022/04/22 11:50:38;;;;;;;3.13;2.00;;;;;;;;;;6308742;22;20545;-64
2022/04/22 11:53:07;;;;;;;3.13;2.25;;;;;;;;;;6308814;22;20149;-64
2022/04/22 11:55:33;;;;;;;3.15;1.75;;;;;;;;;;6308484;22;20138;-64
2022/04/22 11:58:00;;;;;;;4.07;2.20;;;;;;;;;;6308460;22;20173;-64
2022/04/22 12:05:56;;;;;;;3.20;2.22;;;;;;;;;;6316947;22;20145;-64
2022/04/22 12:08:22;;;;;;;3.13;1.90;;;;;;;;;;6323566;22;20581;-64
2022/04/22 12:10:50;;;;;;;4.57;2.45;;;;;;;;;;6318868;22;20195;-64
2022/04/22 12:13:17;;;;;;;6.50;2.75;;;;;;;;;;6317489;22;20211;-64
2022/04/22 12:15:48;;;;;;;7.03;2.47;;;;;;;;;;6315435;22;20146;-63
2022/04/22 12:18:27;;;;;;;3.80;2.42;;;;;;;;;;6309739;22;20460;-63
2022/04/22 12:20:53;;;;;;;4.90;2.28;;;;;;;;;;6309788;22;20143;-63
2022/04/22 12:23:21;;;;;;;2.72;2.10;;;;;;;;;;6308642;22;20146;-63
2022/04/22 12:25:54;;;;;;;4.00;2.03;;;;;;;;;;6308722;22;20142;-63
2022/04/22 12:28:20;;;;;;;4.45;2.13;;;;;;;;;;6308745;22;20461;-63
2022/04/22 12:30:47;;;;;;;4.90;2.33;;;;;;;;;;6308162;22;20165;-63
2022/04/22 12:33:25;;;;;;;2.95;2.22;;;;;;;;;;6311268;22;20199;-63
2022/04/22 12:36:10;;;;;;;4.28;2.03;;;;;;;;;;6309513;22;20127;-63
2022/04/22 12:38:37;;;;;;;5.57;2.40;;;;;;;;;;6308050;22;20146;-63
2022/04/22 12:41:03;;;;;;;4.80;2.40;;;;;;;;;;6307994;22;20557;-64
2022/04/22 12:43:32;;;;;;;6.40;2.58;;;;;;;;;;6308302;22;20157;-63
2022/04/22 12:52:09;;;;;;;3.05;2.40;;;;;;;;;;6307959;22;20142;-63
2022/04/22 12:54:37;;;;;;;4.80;2.85;;;;;;;;;;6307984;22;20150;-63
2022/04/22 12:57:05;;;;;;;3.83;2.67;;;;;;;;;;6308136;22;20553;-63
2022/04/22 12:59:41;;;;;;;3.53;2.75;;;;;;;;;;6308070;22;20138;-63
2022/04/22 13:02:08;;;;;;;3.70;2.42;;;;;;;;;;6308225;22;20142;-63
2022/04/22 13:04:34;;;;;;;5.63;2.88;;;;;;;;;;6307739;22;20138;-63
2022/04/22 13:07:09;;;;;;;5.47;3.13;;;;;;;;;;6307895;22;20148;-63
2022/04/22 13:09:35;;;;;;;4.72;3.25;;;;;;;;;;6307909;22;20163;-63
2022/04/22 13:12:00;;;;;;;6.18;3.15;;;;;;;;;;6307931;22;20139;-63
2022/04/22 13:14:26;;;;;;;4.93;3.22;;;;;;;;;;6308222;22;20146;-63
2022/04/22 13:16:55;;;;;;;5.50;3.80;;;;;;;;;;6308139;22;20422;-63
2022/04/22 13:19:21;;;;;;;8.60;3.95;;;;;;;;;;6307833;22;20143;-63
2022/04/22 13:21:47;;;;;;;5.68;3.15;;;;;;;;;;6308276;22;20170;-63
2022/04/22 13:24:13;;;;;;;6.40;3.22;;;;;;;;;;6308114;22;20409;-63
2022/04/22 13:26:39;;;;;;;6.25;3.20;;;;;;;;;;6308279;22;20199;-63
2022/04/22 13:29:05;;;;;;;3.90;2.83;;;;;;;;;;6307927;22;20206;-63
2022/04/22 13:31:32;;;;;;;4.15;2.90;;;;;;;;;;6308227;22;20141;-63
2022/04/22 13:33:58;;;;;;;4.43;2.67;;;;;;;;;;6307993;22;20203;-63
2022/04/22 13:36:24;;;;;;;4.20;2.58;;;;;;;;;;6308393;22;20532;-63
2022/04/22 13:38:50;;;;;;;3.38;2.40;;;;;;;;;;6308013;22;20164;-63
2022/04/22 13:41:16;;;;;;;4.05;2.50;;;;;;;;;;6307860;22;20218;-63
2022/04/22 13:43:43;;;;;;;3.25;2.30;;;;;;;;;;6308142;22;20598;-63
2022/04/22 13:54:22;;;;;;;2.63;2.15;;;;;;;;;;6309694;22;20557;-63
2022/04/22 13:56:49;;;;;;;5.53;2.42;;;;;;;;;;6309600;22;20135;-63
2022/04/22 13:59:15;;;;;;;4.82;2.65;;;;;;;;;;6309681;22;20138;-63
2022/04/22 14:01:41;;;;;;;6.78;2.70;;;;;;;;;;6310295;22;20147;-63
2022/04/22 14:04:07;;;;;;;3.75;2.25;;;;;;;;;;6310091;22;20227;-63
2022/04/22 14:06:33;;;;;;;4.20;2.75;;;;;;;;;;6309480;22;20546;-63
2022/04/22 14:09:00;;;;;;;3.38;2.17;;;;;;;;;;6309628;22;20166;-63
2022/04/22 14:11:28;;;;;;;8.23;2.92;;;;;;;;;;6309451;22;20143;-64
2022/04/22 14:13:54;;;;;;;3.50;2.70;;;;;;;;;;6309472;22;20550;-63
2022/04/22 14:16:20;;;;;;;4.43;2.75;;;;;;;;;;6309459;22;20546;-63
2022/04/22 14:18:46;;;;;;;3.05;2.70;;;;;;;;;;6309529;22;20146;-63
2022/04/22 14:21:12;;;;;;;3.42;3.13;;;;;;;;;;6309355;22;20138;-63
2022/04/22 14:23:38;;;;;;;4.10;2.75;;;;;;;;;;6309671;22;20150;-63
2022/04/22 14:26:04;;;;;;;3.35;2.80;;;;;;;;;;6309733;22;20170;-63
2022/04/22 14:28:30;;;;;;;4.65;2.95;;;;;;;;;;6309243;22;20266;-63
2022/04/22 14:30:57;;;;;;;3.20;2.90;;;;;;;;;;6309191;22;20185;-63
2022/04/22 14:33:24;;;;;;;4.97;2.95;;;;;;;;;;6309349;22;20435;-63
2022/04/22 14:35:50;;;;;;;3.95;3.00;;;;;;;;;;6309602;22;20220;-64
2022/04/22 14:38:16;;;;;;;4.32;3.05;;;;;;;;;;6309710;22;20561;-64
2022/04/22 14:40:42;;;;;;;3.20;2.40;;;;;;;;;;6309281;22;20533;-64
2022/04/22 14:43:08;;;;;;;4.82;3.00;;;;;;;;;;6309562;22;20584;-64
2022/04/22 14:45:34;;;;;;;2.95;2.65;;;;;;;;;;6309540;22;20146;-64
2022/04/22 14:48:00;;;;;;;4.85;2.60;;;;;;;;;;6309098;22;20158;-64
2022/04/22 14:50:26;;;;;;;3.42;2.70;;;;;;;;;;6309263;22;20550;-64
2022/04/22 14:52:53;;;;;;;3.72;3.13;;;;;;;;;;6309386;22;20134;-64
2022/04/22 14:55:20;;;;;;;4.70;2.90;;;;;;;;;;6309578;22;20158;-64
2022/04/22 14:57:46;;;;;;;4.95;3.05;;;;;;;;;;6309254;22;20219;-64
2022/04/22 15:00:12;;;;;;;7.00;3.22;;;;;;;;;;6309476;22;20154;-64
2022/04/22 15:02:39;;;;;;;3.92;3.20;;;;;;;;;;6309743;22;20142;-64
2022/04/22 15:05:06;;;;;;;3.88;3.10;;;;;;;;;;6309513;22;20174;-64
2022/04/22 15:07:32;;;;;;;4.63;3.08;;;;;;;;;;6309322;22;20223;-64
2022/04/22 15:09:58;;;;;;;4.72;3.00;;;;;;;;;;6308941;22;20484;-62
2022/04/22 15:12:24;;;;;;;3.47;2.70;;;;;;;;;;6308905;22;20221;-64
2022/04/22 15:14:50;;;;;;;4.18;3.00;;;;;;;;;;6308699;22;20217;-63
2022/04/22 15:17:17;;;;;;;4.28;3.05;;;;;;;;;;6308955;22;20135;-63
2022/04/22 15:25:12;;;;;;;3.60;2.97;;;;;;;;;;6308825;22;20165;-63
2022/04/22 15:27:41;;;;;;;5.07;3.28;;;;;;;;;;6308980;22;20174;-63
2022/04/22 15:30:08;;;;;;;5.05;3.10;;;;;;;;;;6308742;22;20240;-63
2022/04/22 15:32:34;;;;;;;4.40;2.75;;;;;;;;;;6309329;22;20147;-63
2022/04/22 15:35:00;;;;;;;4.80;2.75;;;;;;;;;;6308684;22;20139;-64
2022/04/22 15:37:26;;;;;;;4.38;3.00;;;;;;;;;;6308625;22;20149;-63
2022/04/22 15:39:58;;;;;;;3.75;2.70;;;;;;;;;;6309184;22;20145;-63
2022/04/22 15:42:24;;;;;;;4.55;2.97;;;;;;;;;;6308734;22;20123;-65
2022/04/22 15:44:49;;;;;;;4.05;3.05;;;;;;;;;;6308815;22;20504;-65
2022/04/22 15:47:15;;;;;;;4.20;2.85;;;;;;;;;;6308742;22;20219;-63
2022/04/22 15:49:41;;;;;;;5.25;2.85;;;;;;;;;;6308869;22;20172;-63
2022/04/22 15:52:12;;;;;;;4.13;2.70;;;;;;;;;;6308393;22;20548;-63
2022/04/22 15:54:39;;;;;;;2.80;2.50;;;;;;;;;;6309403;22;20161;-63
2022/04/22 15:57:06;;;;;;;5.53;3.00;;;;;;;;;;6308922;22;20252;-63